Huvudsida
METAR-TAF:

METAR-TAF

Flygplatser :

Győr-Pér internationella flygplats

Győr, Ungern

latitud: 47-37-28N, longitud: 017-48-49E, höjd: 129 m

Aktuellt väderrapport

Denna rapport gjordes för 35 minuter sedan, klockan 07:15 UTC
Vind 3 kt varierande vindriktning
Temperatur 4°C
Fuktighet 70%
Tryck 1031 hPa
Sikt 10 km eller mer
Inga moln under 1 500 m eller inga cumulonimbus

METAR: LHPR 220715Z AUTO VRB03KT CAVOK 04/M01 Q1031

Tid: 08:50 (07:50 UTC)

Väderprognos

Denna rapport gjordes för 2 timmar och 35 minuter sedan, klockan 05:15 UTC
Prognos gäller från 22 kl. 06 UTC till 22 kl. 15 UTC
Vind 2 kt varierande vindriktning
Sikt 10 km eller mer
Inga moln under 1 500 m eller inga cumulonimbus
Blir
från 22 kl. 06 UTC till 22 kl. 09 UTC
Vind 9 kt från sydväst
Blir
från 22 kl. 09 UTC till 22 kl. 12 UTC
Vind 16 kt från sydväst i byarna ända upp till 26 kt

TAF: LHPR 220515Z 2206/2215 VRB02KT CAVOK BECMG 2206/2209 22009KT BECMG 2209/2212 22016G26KT

Aktuella väderrapporter och prognoser från 4000 flygplatser (METAR- och TAF-rapporter).

De tillgängliga stationerna syns som gula och röda prickar på kartan.

För musen över prickarna för att se namnen på stationerna.

Klicka sedan för att få väderrapporter och prognoser.

För att ändra kartan: Klicka på de gröna knapparna med ett svart kors på för att zooma in; den gröna knappen med ett streck på för att zooma ut; eller på de gröna pilarna för angränsande kartor.


METAR-TAF: